Time;durP1;ratioP1;P1;durP2;ratioP2;P2;SDS_P1;SDS_P2;PMS_P1;PMS_P2;Temp;Humidity;BMP_temperature;BMP_pressure;BME280_temperature;BME280_humidity;BME280_pressure;Samples;Min_cycle;Max_cycle;Signal;HPM_P1;HPM_P2
2022/03/23 00:00:05;;;;;;;59.42;40.28;;;9.20;99.90;;;;;;4932046;28;20055;-55
2022/03/23 00:02:31;;;;;;;52.20;37.65;;;9.20;99.90;;;;;;4929534;28;20250;-54
2022/03/23 00:04:57;;;;;;;56.67;39.28;;;9.20;99.90;;;;;;4927901;29;20051;-55
2022/03/23 00:07:23;;;;;;;51.50;36.08;;;9.10;99.90;;;;;;4931465;29;20042;-55
2022/03/23 00:09:49;;;;;;;48.47;35.17;;;9.10;99.90;;;;;;4927695;28;20055;-53
2022/03/23 00:12:15;;;;;;;43.83;32.92;;;9.00;99.90;;;;;;4927500;28;20179;-56
2022/03/23 00:14:41;;;;;;;43.58;31.70;;;9.00;99.90;;;;;;4925991;29;20047;-55
2022/03/23 00:17:07;;;;;;;46.83;33.50;;;9.00;99.90;;;;;;4923027;28;20060;-54
2022/03/23 00:19:33;;;;;;;46.88;32.72;;;8.90;99.90;;;;;;4925984;28;20055;-55
2022/03/23 00:21:59;;;;;;;45.47;33.40;;;8.90;99.90;;;;;;4927182;28;20043;-54
2022/03/23 00:24:25;;;;;;;47.40;33.45;;;8.80;99.90;;;;;;4926048;29;20115;-54
2022/03/23 00:26:50;;;;;;;53.20;35.20;;;8.70;99.90;;;;;;4925050;29;20059;-55
2022/03/23 00:29:16;;;;;;;50.88;36.58;;;8.70;99.90;;;;;;4924852;29;20039;-54
2022/03/23 00:31:42;;;;;;;50.25;33.28;;;8.60;99.90;;;;;;4924033;29;20068;-53
2022/03/23 00:34:08;;;;;;;46.45;34.30;;;8.60;99.90;;;;;;4926635;29;20126;-55
2022/03/23 00:36:34;;;;;;;44.53;33.08;;;8.60;99.90;;;;;;4925528;28;20049;-55
2022/03/23 00:39:00;;;;;;;52.17;34.70;;;8.50;99.90;;;;;;4924112;29;20047;-55
2022/03/23 00:41:26;;;;;;;48.50;34.90;;;8.50;99.90;;;;;;4914015;29;20052;-53
2022/03/23 00:43:52;;;;;;;49.42;34.17;;;8.50;99.90;;;;;;4922924;28;20107;-54
2022/03/23 00:46:18;;;;;;;53.88;37.10;;;8.40;99.90;;;;;;4924658;29;20078;-55
2022/03/23 00:48:44;;;;;;;47.60;34.42;;;8.40;99.90;;;;;;4925531;29;20395;-54
2022/03/23 00:51:10;;;;;;;50.45;34.97;;;8.40;99.90;;;;;;4921946;29;20039;-54
2022/03/23 00:53:36;;;;;;;55.10;37.70;;;8.30;99.90;;;;;;4925838;29;20062;-52
2022/03/23 00:56:01;;;;;;;50.20;34.10;;;8.20;99.90;;;;;;4924516;28;20040;-55
2022/03/23 00:58:27;;;;;;;49.35;35.88;;;8.20;99.90;;;;;;4925326;29;20122;-54
2022/03/23 01:00:53;;;;;;;62.25;37.42;;;8.20;99.90;;;;;;4926198;28;20095;-55
2022/03/23 01:03:19;;;;;;;56.20;36.92;;;8.10;99.90;;;;;;4926744;29;20051;-54
2022/03/23 01:05:45;;;;;;;49.72;35.45;;;8.10;99.90;;;;;;4923197;28;20051;-53
2022/03/23 01:08:11;;;;;;;50.28;36.67;;;8.10;99.90;;;;;;4923544;29;20062;-55
2022/03/23 01:10:37;;;;;;;54.53;37.63;;;8.10;99.90;;;;;;4925195;28;20044;-55
2022/03/23 01:13:03;;;;;;;57.33;39.15;;;8.00;99.90;;;;;;4925092;29;20046;-55
2022/03/23 01:15:29;;;;;;;56.58;39.50;;;8.00;99.90;;;;;;4925861;28;20161;-54
2022/03/23 01:17:55;;;;;;;51.13;36.78;;;7.90;99.90;;;;;;4924333;28;20841;-55
2022/03/23 01:20:21;;;;;;;53.10;37.90;;;7.90;99.90;;;;;;4924864;29;20418;-53
2022/03/23 01:22:48;;;;;;;55.30;38.80;;;7.80;99.90;;;;;;4906154;29;20126;-55
2022/03/23 01:25:14;;;;;;;52.67;37.80;;;7.80;99.90;;;;;;4923808;29;22166;-56
2022/03/23 01:27:42;;;;;;;50.65;37.00;;;7.70;99.90;;;;;;4926524;28;20054;-55
2022/03/23 01:30:11;;;;;;;53.90;36.50;;;7.60;99.90;;;;;;4924450;29;20051;-54
2022/03/23 01:32:38;;;;;;;51.67;36.70;;;7.60;99.90;;;;;;4922182;28;20043;-56
2022/03/23 01:35:05;;;;;;;57.75;38.92;;;7.60;99.90;;;;;;4920029;28;20051;-55
2022/03/23 01:37:31;;;;;;;57.63;39.47;;;7.60;99.90;;;;;;4925744;28;20086;-56
2022/03/23 01:39:58;;;;;;;55.67;39.70;;;7.60;99.90;;;;;;4926982;28;20154;-54
2022/03/23 01:42:26;;;;;;;57.03;39.55;;;7.50;99.90;;;;;;4925628;28;21022;-56
2022/03/23 01:44:52;;;;;;;54.72;38.50;;;7.40;99.90;;;;;;4927215;28;20047;-55
2022/03/23 01:47:18;;;;;;;58.60;39.60;;;7.40;99.90;;;;;;4925672;28;20077;-55
2022/03/23 01:49:52;;;;;;;61.42;40.55;;;7.40;99.90;;;;;;4924116;29;20481;-53
2022/03/23 01:52:21;;;;;;;64.70;43.40;;;7.40;99.90;;;;;;4922153;28;20043;-56
2022/03/23 01:54:47;;;;;;;61.38;42.47;;;7.40;99.90;;;;;;4926342;29;20835;-54
2022/03/23 01:57:15;;;;;;;59.72;41.15;;;7.30;99.90;;;;;;4922129;29;20604;-55
2022/03/23 01:59:41;;;;;;;62.75;42.20;;;7.30;99.90;;;;;;4920714;28;20530;-54
2022/03/23 02:02:10;;;;;;;63.67;43.42;;;7.30;99.90;;;;;;4925527;28;20051;-53
2022/03/23 02:04:38;;;;;;;59.97;39.70;;;7.30;99.90;;;;;;4923288;28;20051;-56
2022/03/23 02:07:05;;;;;;;63.90;43.67;;;7.30;99.90;;;;;;4923310;29;20412;-56
2022/03/23 02:09:32;;;;;;;59.58;41.00;;;7.30;99.90;;;;;;4920429;28;20043;-51
2022/03/23 02:12:01;;;;;;;59.60;39.75;;;7.20;99.90;;;;;;4928693;28;20407;-54
2022/03/23 02:14:27;;;;;;;52.45;36.17;;;7.20;99.90;;;;;;4924219;29;20046;-55
2022/03/23 02:16:53;;;;;;;59.20;40.40;;;7.20;99.90;;;;;;4933295;29;20509;-54
2022/03/23 02:19:21;;;;;;;56.55;37.75;;;7.20;99.90;;;;;;4930971;28;20456;-53
2022/03/23 02:21:49;;;;;;;51.53;37.33;;;7.10;99.90;;;;;;4929256;29;20107;-54
2022/03/23 02:24:16;;;;;;;56.90;38.38;;;7.10;99.90;;;;;;4924686;29;20142;-54
2022/03/23 02:26:42;;;;;;;47.15;33.35;;;7.10;99.90;;;;;;4922006;28;20047;-55
2022/03/23 02:29:09;;;;;;;40.35;28.90;;;7.00;99.90;;;;;;4924448;29;20525;-54
2022/03/23 02:31:36;;;;;;;37.47;27.77;;;7.00;99.90;;;;;;4923008;28;20039;-55
2022/03/23 02:34:03;;;;;;;35.47;25.88;;;6.90;99.90;;;;;;4922800;29;20749;-56
2022/03/23 02:36:29;;;;;;;37.20;28.20;;;6.90;99.90;;;;;;4924882;29;20264;-55
2022/03/23 02:38:55;;;;;;;46.92;31.90;;;6.80;99.90;;;;;;4925367;29;20126;-54
2022/03/23 02:41:20;;;;;;;47.72;34.08;;;6.80;99.90;;;;;;4921201;28;20544;-54
2022/03/23 02:43:46;;;;;;;50.50;34.80;;;6.80;99.90;;;;;;4908816;29;20110;-55
2022/03/23 02:46:21;;;;;;;55.15;37.38;;;6.80;99.90;;;;;;4922928;28;20047;-55
2022/03/23 02:48:51;;;;;;;49.65;35.58;;;6.70;99.90;;;;;;4920331;28;20095;-55
2022/03/23 02:51:18;;;;;;;53.47;35.60;;;6.70;99.90;;;;;;4925240;29;20070;-55
2022/03/23 03:02:38;;;;;;;47.80;34.58;;;6.60;99.90;;;;;;4919641;29;20503;-56
2022/03/23 03:05:06;;;;;;;51.17;35.78;;;6.50;99.90;;;;;;4920269;28;20074;-56
2022/03/23 03:08:44;;;;;;;58.75;39.97;;;6.50;99.90;;;;;;4927025;28;20119;-54
2022/03/23 03:10:23;;;;;;;59.05;39.88;;;6.50;99.90;;;;;;4927490;28;20047;-54
2022/03/23 03:12:50;;;;;;;67.97;44.85;;;6.50;99.90;;;;;;4926137;28;20062;-55
2022/03/23 03:15:18;;;;;;;60.35;39.63;;;6.40;99.90;;;;;;4925468;28;20489;-54
2022/03/23 03:17:46;;;;;;;65.88;41.88;;;6.40;99.90;;;;;;4928026;28;20051;-54
2022/03/23 03:20:14;;;;;;;59.42;39.83;;;6.40;99.90;;;;;;4929572;29;20599;-56
2022/03/23 03:22:40;;;;;;;70.38;44.55;;;6.40;99.90;;;;;;4925423;29;20530;-55
2022/03/23 03:25:10;;;;;;;59.45;41.67;;;6.40;99.90;;;;;;4929613;29;20064;-55
2022/03/23 03:27:39;;;;;;;62.17;42.22;;;6.40;99.90;;;;;;4927287;28;20684;-54
2022/03/23 03:30:07;;;;;;;73.88;44.95;;;6.40;99.90;;;;;;4924125;29;20392;-55
2022/03/23 03:32:34;;;;;;;71.63;46.42;;;6.40;99.90;;;;;;4924031;28;20075;-55
2022/03/23 03:34:59;;;;;;;71.20;45.90;;;6.30;99.90;;;;;;4924005;29;20043;-52
2022/03/23 03:37:25;;;;;;;69.85;46.00;;;6.30;99.90;;;;;;4926435;28;20055;-55
2022/03/23 03:39:51;;;;;;;69.63;45.22;;;6.30;99.90;;;;;;4926854;28;20055;-55
2022/03/23 03:42:18;;;;;;;76.38;48.05;;;6.20;99.90;;;;;;4926916;29;20058;-53
2022/03/23 03:44:45;;;;;;;68.63;45.70;;;6.20;99.90;;;;;;4926544;29;22630;-55
2022/03/23 03:47:11;;;;;;;68.90;43.85;;;6.20;99.90;;;;;;4925738;28;20597;-54
2022/03/23 03:49:38;;;;;;;66.63;43.95;;;6.20;99.90;;;;;;4927190;29;20792;-55
2022/03/23 03:52:05;;;;;;;75.22;44.90;;;6.20;99.90;;;;;;4913512;29;20054;-55
2022/03/23 03:54:32;;;;;;;65.95;45.20;;;6.20;99.90;;;;;;4923098;29;20544;-56
2022/03/23 03:56:57;;;;;;;65.80;42.50;;;6.20;99.90;;;;;;4924883;28;20055;-54
2022/03/23 03:59:23;;;;;;;63.03;42.50;;;6.20;99.90;;;;;;4926866;29;20050;-55
2022/03/23 04:01:50;;;;;;;72.15;45.53;;;6.20;99.90;;;;;;4925492;29;20051;-54
2022/03/23 04:04:16;;;;;;;61.72;42.28;;;6.20;99.90;;;;;;4925317;28;20145;-55
2022/03/23 04:06:42;;;;;;;65.95;43.13;;;6.10;99.90;;;;;;4924712;29;20597;-54
2022/03/23 04:09:08;;;;;;;68.07;45.78;;;6.10;99.90;;;;;;4926563;28;20114;-53
2022/03/23 04:11:34;;;;;;;69.95;44.92;;;6.10;99.90;;;;;;4922775;28;20932;-54
2022/03/23 04:14:01;;;;;;;66.13;43.45;;;6.10;99.90;;;;;;4926579;29;20050;-55
2022/03/23 04:16:27;;;;;;;63.67;42.13;;;6.00;99.90;;;;;;4922467;28;20055;-55
2022/03/23 04:18:53;;;;;;;65.05;42.42;;;6.00;99.90;;;;;;4929501;29;20048;-50
2022/03/23 04:21:19;;;;;;;69.43;43.40;;;6.00;99.90;;;;;;4924263;28;20107;-55
2022/03/23 04:23:45;;;;;;;65.32;41.95;;;6.00;99.90;;;;;;4927074;28;20087;-54
2022/03/23 04:26:11;;;;;;;62.75;41.20;;;6.00;99.90;;;;;;4927075;28;20083;-55
2022/03/23 04:28:36;;;;;;;61.83;42.15;;;5.90;99.90;;;;;;4924303;29;20051;-55
2022/03/23 04:31:03;;;;;;;68.63;44.78;;;6.00;99.90;;;;;;4923494;28;20103;-55
2022/03/23 04:33:29;;;;;;;58.05;39.38;;;5.90;99.90;;;;;;4923976;28;20043;-56
2022/03/23 04:35:55;;;;;;;59.38;39.65;;;5.90;99.90;;;;;;4924179;29;20059;-54
2022/03/23 04:38:21;;;;;;;58.22;38.97;;;5.80;99.90;;;;;;4928772;29;20118;-54
2022/03/23 04:40:47;;;;;;;56.30;38.97;;;5.80;99.90;;;;;;4926677;29;20051;-55
2022/03/23 04:43:12;;;;;;;55.45;37.15;;;5.70;99.90;;;;;;4925632;28;20051;-56
2022/03/23 04:45:40;;;;;;;52.60;36.17;;;5.80;99.90;;;;;;4923575;28;20169;-55
2022/03/23 04:48:06;;;;;;;57.70;38.10;;;5.80;99.90;;;;;;4925177;29;20057;-55
2022/03/23 04:50:32;;;;;;;56.85;36.47;;;5.70;99.90;;;;;;4924203;29;20056;-55
2022/03/23 04:52:57;;;;;;;58.38;37.55;;;5.70;99.90;;;;;;4925154;29;20126;-54
2022/03/23 04:55:24;;;;;;;60.53;40.13;;;5.70;99.90;;;;;;4923483;28;20204;-54
2022/03/23 04:57:50;;;;;;;67.07;41.65;;;5.60;99.90;;;;;;4924901;28;21371;-54
2022/03/23 05:00:20;;;;;;;69.60;44.22;;;5.60;99.90;;;;;;4923190;29;20055;-55
2022/03/23 05:02:46;;;;;;;67.93;44.25;;;5.60;99.90;;;;;;4924736;28;20058;-55
2022/03/23 05:05:13;;;;;;;62.10;40.97;;;5.60;99.90;;;;;;4921425;29;20043;-54
2022/03/23 05:07:40;;;;;;;61.65;41.53;;;5.50;99.90;;;;;;4924731;28;20232;-54
2022/03/23 05:10:08;;;;;;;67.30;43.70;;;5.40;99.90;;;;;;4922981;28;20043;-54
2022/03/23 05:12:36;;;;;;;64.60;42.67;;;5.50;99.90;;;;;;4924114;28;20174;-55
2022/03/23 05:15:04;;;;;;;63.70;41.35;;;5.50;99.90;;;;;;4923955;28;20055;-54
2022/03/23 05:17:31;;;;;;;56.83;38.80;;;5.50;99.90;;;;;;4924125;28;20168;-55
2022/03/23 05:19:57;;;;;;;61.10;40.33;;;5.50;99.90;;;;;;4923608;29;20055;-54
2022/03/23 05:22:23;;;;;;;62.70;40.22;;;5.50;99.90;;;;;;4925828;29;20051;-55
2022/03/23 05:24:49;;;;;;;66.50;42.53;;;5.40;99.90;;;;;;4923880;29;20119;-54
2022/03/23 05:27:14;;;;;;;66.75;42.38;;;5.40;99.90;;;;;;4930041;29;20050;-55
2022/03/23 05:29:40;;;;;;;65.80;42.35;;;5.40;99.90;;;;;;4934028;29;20047;-54
2022/03/23 05:32:06;;;;;;;67.22;42.75;;;5.40;99.90;;;;;;4931153;29;20078;-54
2022/03/23 05:34:33;;;;;;;65.50;42.20;;;5.40;99.90;;;;;;4932639;28;20056;-54
2022/03/23 05:36:59;;;;;;;66.63;43.03;;;5.30;99.90;;;;;;4930755;28;20131;-54
2022/03/23 05:39:24;;;;;;;64.78;43.15;;;5.30;99.90;;;;;;4931554;29;20047;-55
2022/03/23 05:41:50;;;;;;;64.38;41.40;;;5.30;99.90;;;;;;4931098;29;20070;-54
2022/03/23 05:44:16;;;;;;;63.95;42.50;;;5.30;99.90;;;;;;4922038;29;20047;-53
2022/03/23 05:46:42;;;;;;;66.75;43.00;;;5.30;99.90;;;;;;4922520;29;20498;-54
2022/03/23 05:49:08;;;;;;;63.55;41.17;;;5.30;99.90;;;;;;4922999;28;20098;-52
2022/03/23 05:51:35;;;;;;;61.00;38.50;;;5.30;99.90;;;;;;4922509;28;20043;-53
2022/03/23 05:54:02;;;;;;;56.22;37.40;;;5.30;99.90;;;;;;4920880;29;20487;-53
2022/03/23 05:56:27;;;;;;;61.50;39.45;;;5.30;99.90;;;;;;4921872;28;20555;-54
2022/03/23 05:58:54;;;;;;;61.22;40.63;;;5.30;99.90;;;;;;4925639;28;20047;-55
2022/03/23 06:01:20;;;;;;;61.95;41.20;;;5.30;99.90;;;;;;4922503;28;20368;-53
2022/03/23 06:03:49;;;;;;;69.97;45.50;;;5.30;99.90;;;;;;4928800;28;20122;-55
2022/03/23 06:06:16;;;;;;;70.45;45.60;;;5.30;99.90;;;;;;4923452;28;20486;-55
2022/03/23 06:08:42;;;;;;;69.25;44.65;;;5.20;99.90;;;;;;4927992;29;20051;-52
2022/03/23 06:11:08;;;;;;;79.28;48.92;;;5.30;99.90;;;;;;4920761;28;20062;-54
2022/03/23 06:13:34;;;;;;;69.13;45.42;;;5.30;99.90;;;;;;4922677;28;20048;-55
2022/03/23 06:16:00;;;;;;;78.15;49.55;;;5.30;99.90;;;;;;4923021;29;20094;-54
2022/03/23 06:18:25;;;;;;;86.43;50.20;;;5.30;99.90;;;;;;4924016;28;20047;-54
2022/03/23 06:20:51;;;;;;;77.18;48.17;;;5.30;99.90;;;;;;4920338;29;20054;-54
2022/03/23 06:23:17;;;;;;;79.05;47.00;;;5.30;99.90;;;;;;4923270;28;20061;-55
2022/03/23 06:25:43;;;;;;;76.63;47.03;;;5.30;99.90;;;;;;4926518;29;20051;-54
2022/03/23 06:28:09;;;;;;;77.00;48.22;;;5.40;99.90;;;;;;4926891;29;20048;-54
2022/03/23 06:30:35;;;;;;;74.15;47.35;;;5.40;99.90;;;;;;4923940;29;20056;-54
2022/03/23 06:33:01;;;;;;;78.53;45.97;;;5.40;99.90;;;;;;4924647;28;20043;-55
2022/03/23 06:35:29;;;;;;;73.47;48.15;;;5.40;99.90;;;;;;4921157;29;20376;-55
2022/03/23 06:37:55;;;;;;;84.28;51.38;;;5.50;99.90;;;;;;4923636;29;20058;-53
2022/03/23 06:40:21;;;;;;;80.07;48.85;;;5.50;99.90;;;;;;4926409;28;20051;-52
2022/03/23 06:42:47;;;;;;;76.20;47.40;;;5.50;99.90;;;;;;4928454;29;20336;-55
2022/03/23 06:45:13;;;;;;;74.57;47.92;;;5.60;99.90;;;;;;4929082;29;20051;-53
2022/03/23 06:47:39;;;;;;;79.45;48.83;;;5.60;99.90;;;;;;4928138;29;20147;-53
2022/03/23 06:50:07;;;;;;;73.82;48.42;;;5.60;99.90;;;;;;4928805;28;20700;-53
2022/03/23 06:52:33;;;;;;;76.47;49.35;;;5.70;99.90;;;;;;4930754;29;20125;-54
2022/03/23 06:54:59;;;;;;;77.32;50.10;;;5.70;99.90;;;;;;4933727;28;20057;-55
2022/03/23 06:57:25;;;;;;;83.57;50.15;;;5.80;99.90;;;;;;4934946;28;20400;-55
2022/03/23 06:59:51;;;;;;;77.72;50.83;;;5.80;99.90;;;;;;4928307;28;20058;-54
2022/03/23 07:02:17;;;;;;;82.00;52.03;;;5.90;99.90;;;;;;4928285;29;20477;-54
2022/03/23 07:04:43;;;;;;;84.80;50.67;;;5.90;99.90;;;;;;4927421;29;20999;-55
2022/03/23 07:07:09;;;;;;;82.65;50.80;;;6.00;99.90;;;;;;4927989;28;20173;-53
2022/03/23 07:09:38;;;;;;;80.55;51.13;;;6.00;99.90;;;;;;4930320;29;20039;-55
2022/03/23 07:12:09;;;;;;;81.40;49.90;;;6.10;99.90;;;;;;4929931;28;20073;-53
2022/03/23 07:14:36;;;;;;;83.32;51.08;;;6.20;99.90;;;;;;4927756;29;20134;-53
2022/03/23 07:17:04;;;;;;;82.55;51.53;;;6.30;99.90;;;;;;4927384;28;20118;-55
2022/03/23 07:19:30;;;;;;;88.72;50.60;;;6.40;99.90;;;;;;4928313;29;20058;-54
2022/03/23 07:21:56;;;;;;;85.95;51.17;;;6.40;99.90;;;;;;4931064;29;20127;-55
2022/03/23 07:24:23;;;;;;;76.78;48.75;;;6.50;99.90;;;;;;4931066;29;20187;-55
2022/03/23 07:26:49;;;;;;;74.47;48.40;;;6.60;99.90;;;;;;4930158;28;20126;-54
2022/03/23 07:29:15;;;;;;;78.18;49.70;;;6.70;99.90;;;;;;4930779;28;20047;-50
2022/03/23 07:31:41;;;;;;;77.55;48.40;;;6.80;99.90;;;;;;4917732;29;20048;-55
2022/03/23 07:34:07;;;;;;;75.03;47.95;;;6.90;99.90;;;;;;4931579;28;20478;-55
2022/03/23 07:36:34;;;;;;;79.35;47.45;;;7.00;99.90;;;;;;4928787;29;21480;-54
2022/03/23 07:39:00;;;;;;;72.90;45.72;;;7.10;99.90;;;;;;4931750;28;20110;-55
2022/03/23 07:41:26;;;;;;;77.72;47.72;;;7.30;99.90;;;;;;4930660;29;20047;-55
2022/03/23 07:43:51;;;;;;;73.57;45.17;;;7.40;99.90;;;;;;4932046;28;20504;-55
2022/03/23 07:46:20;;;;;;;68.53;44.33;;;7.50;99.90;;;;;;4928980;28;20381;-54
2022/03/23 07:48:46;;;;;;;72.65;45.58;;;7.70;99.90;;;;;;4930784;28;20047;-55
2022/03/23 07:51:12;;;;;;;70.30;45.10;;;7.70;99.90;;;;;;4928242;28;21226;-56
2022/03/23 07:53:38;;;;;;;67.28;44.13;;;7.90;99.90;;;;;;4927473;29;20040;-55
2022/03/23 07:56:04;;;;;;;66.93;43.25;;;8.00;99.90;;;;;;4926895;29;20091;-55
2022/03/23 07:58:30;;;;;;;67.22;43.03;;;8.20;99.90;;;;;;4929597;28;20055;-56
2022/03/23 08:00:56;;;;;;;66.13;40.97;;;8.30;99.90;;;;;;4926183;29;20146;-53
2022/03/23 08:03:23;;;;;;;60.45;41.60;;;8.50;99.90;;;;;;4925261;29;20075;-54
2022/03/23 08:05:49;;;;;;;60.95;39.17;;;8.70;99.90;;;;;;4928534;29;20089;-55
2022/03/23 08:08:15;;;;;;;61.90;39.03;;;8.90;99.90;;;;;;4934932;28;20137;-56
2022/03/23 08:10:42;;;;;;;66.85;38.47;;;9.00;99.90;;;;;;4925452;29;20585;-55
2022/03/23 08:13:09;;;;;;;56.97;38.28;;;9.20;99.90;;;;;;4928522;29;20043;-54
2022/03/23 08:15:40;;;;;;;59.95;38.20;;;9.40;99.90;;;;;;4924862;28;20055;-56
2022/03/23 08:18:06;;;;;;;56.65;36.28;;;9.60;99.90;;;;;;4927846;28;20071;-55
2022/03/23 08:20:32;;;;;;;56.03;36.15;;;9.70;99.90;;;;;;4925783;28;20672;-54
2022/03/23 08:22:59;;;;;;;52.38;34.22;;;9.90;99.90;;;;;;4926780;28;20153;-55
2022/03/23 08:25:25;;;;;;;50.60;32.50;;;10.10;99.90;;;;;;4928948;29;20051;-55
2022/03/23 08:27:51;;;;;;;53.33;34.03;;;10.30;99.90;;;;;;4926939;29;20063;-55
2022/03/23 08:30:17;;;;;;;54.08;33.47;;;10.50;99.90;;;;;;4927849;28;20059;-55
2022/03/23 08:32:43;;;;;;;50.60;33.13;;;10.60;99.80;;;;;;4928749;28;20603;-55
2022/03/23 08:35:09;;;;;;;47.63;31.63;;;10.80;99.30;;;;;;4926164;29;20782;-55
2022/03/23 08:37:37;;;;;;;59.30;32.75;;;11.00;98.30;;;;;;4928390;29;20057;-54
2022/03/23 08:40:03;;;;;;;47.25;31.52;;;11.10;97.70;;;;;;4925891;28;20050;-56
2022/03/23 08:42:30;;;;;;;44.20;30.38;;;11.30;96.90;;;;;;4926941;28;20062;-55
2022/03/23 08:44:56;;;;;;;49.83;30.73;;;11.50;95.90;;;;;;4925958;28;20573;-55
2022/03/23 08:47:22;;;;;;;55.35;31.58;;;11.60;95.30;;;;;;4928093;28;20071;-55
2022/03/23 08:49:49;;;;;;;46.42;30.48;;;11.80;94.80;;;;;;4925051;28;20040;-55
2022/03/23 08:52:14;;;;;;;51.03;32.10;;;11.90;94.10;;;;;;4926557;28;20494;-56
2022/03/23 08:54:41;;;;;;;48.13;32.63;;;12.10;93.50;;;;;;4926752;28;20051;-54
2022/03/23 08:57:07;;;;;;;49.83;32.72;;;12.30;93.10;;;;;;4927699;29;20053;-56
2022/03/23 08:59:33;;;;;;;48.10;32.13;;;12.40;92.70;;;;;;4926875;29;20542;-56
2022/03/23 09:01:59;;;;;;;52.88;32.22;;;12.60;92.10;;;;;;4925793;29;20082;-55
2022/03/23 09:04:25;;;;;;;49.13;31.58;;;12.70;91.60;;;;;;4924621;28;20055;-55
2022/03/23 09:06:51;;;;;;;46.70;29.73;;;12.80;90.40;;;;;;4927395;28;20052;-56
2022/03/23 09:09:17;;;;;;;47.40;29.63;;;13.00;89.40;;;;;;4925560;28;20055;-55
2022/03/23 09:11:43;;;;;;;43.28;28.13;;;13.10;87.10;;;;;;4926394;29;20086;-53
2022/03/23 09:14:13;;;;;;;46.58;28.27;;;13.30;85.30;;;;;;4927786;29;20810;-54
2022/03/23 09:16:40;;;;;;;40.55;28.13;;;13.40;82.40;;;;;;4927454;28;20043;-56
2022/03/23 09:19:06;;;;;;;41.88;26.70;;;13.50;80.70;;;;;;4926158;28;20122;-55
2022/03/23 09:21:32;;;;;;;39.88;26.92;;;13.70;78.80;;;;;;4927201;29;20046;-55
2022/03/23 09:23:58;;;;;;;39.47;26.80;;;13.80;76.90;;;;;;4926463;28;20577;-55
2022/03/23 09:26:24;;;;;;;40.72;27.13;;;13.90;76.50;;;;;;4926294;29;20061;-54
2022/03/23 09:28:53;;;;;;;36.50;26.40;;;14.00;74.80;;;;;;4924867;28;20060;-55
2022/03/23 09:31:19;;;;;;;39.58;26.80;;;14.10;73.70;;;;;;4928371;28;20043;-54
2022/03/23 09:33:48;;;;;;;44.00;27.17;;;14.20;72.60;;;;;;4926696;28;20054;-57
2022/03/23 09:39:02;;;;;;;41.25;27.15;;;14.50;71.00;;;;;;4925320;29;20095;-56
2022/03/23 09:41:31;;;;;;;38.10;26.45;;;14.70;71.10;;;;;;4924846;29;20625;-56
2022/03/23 09:43:59;;;;;;;42.67;25.90;;;14.80;69.70;;;;;;4924330;28;20387;-56
2022/03/23 09:46:24;;;;;;;44.08;27.00;;;15.00;69.80;;;;;;4925466;28;20086;-56
2022/03/23 09:48:50;;;;;;;36.95;23.23;;;15.20;70.00;;;;;;4924817;28;20175;-55
2022/03/23 09:51:17;;;;;;;36.38;24.50;;;15.30;68.90;;;;;;4930198;29;20106;-57
2022/03/23 09:53:44;;;;;;;38.70;24.88;;;15.40;67.40;;;;;;4937094;29;20953;-56
2022/03/23 09:56:10;;;;;;;34.70;22.48;;;15.60;67.30;;;;;;4924164;28;20065;-56
2022/03/23 09:58:36;;;;;;;32.20;23.30;;;15.70;66.20;;;;;;4925157;28;20071;-55
2022/03/23 10:01:04;;;;;;;34.35;24.25;;;15.80;63.50;;;;;;4925206;28;20644;-55
2022/03/23 10:04:07;;;;;;;32.67;23.50;;;16.00;62.90;;;;;;4926535;29;20162;-54
2022/03/23 10:06:53;;;;;;;30.05;21.67;;;16.10;63.10;;;;;;4926344;29;20059;-54
2022/03/23 10:09:21;;;;;;;33.28;22.70;;;16.30;62.90;;;;;;4924087;28;20062;-57
2022/03/23 10:12:25;;;;;;;36.67;22.98;;;16.40;61.80;;;;;;4927129;28;20713;-56
2022/03/23 10:15:28;;;;;;;30.48;22.38;;;16.50;60.40;;;;;;4924366;29;20406;-54
2022/03/23 10:18:01;;;;;;;31.52;21.63;;;16.70;60.60;;;;;;4925475;28;20051;-57
2022/03/23 10:20:27;;;;;;;30.38;22.10;;;16.80;60.40;;;;;;4930206;29;20146;-56
2022/03/23 10:22:54;;;;;;;32.20;21.85;;;17.00;59.20;;;;;;4929237;28;20154;-56
2022/03/23 10:25:26;;;;;;;33.92;20.67;;;17.10;58.20;;;;;;4930189;29;20267;-55
2022/03/23 10:27:54;;;;;;;29.65;21.00;;;17.20;58.00;;;;;;4929068;29;20141;-55
2022/03/23 10:30:32;;;;;;;29.65;20.52;;;17.30;58.90;;;;;;4929268;28;20051;-56
2022/03/23 10:32:58;;;;;;;32.60;21.35;;;17.50;58.10;;;;;;4927866;29;20051;-56
2022/03/23 10:35:38;;;;;;;31.13;21.15;;;17.60;57.30;;;;;;4929342;28;20051;-57
2022/03/23 10:38:21;;;;;;;32.28;21.05;;;17.70;56.60;;;;;;4929274;29;20238;-54
2022/03/23 10:40:50;;;;;;;33.60;21.00;;;17.80;56.50;;;;;;4929543;29;20118;-57
2022/03/23 10:43:20;;;;;;;31.27;20.98;;;17.90;55.50;;;;;;4928691;29;20111;-55
2022/03/23 10:45:47;;;;;;;34.90;20.90;;;18.00;54.60;;;;;;4931229;29;20207;-58
2022/03/23 10:48:17;;;;;;;28.70;20.42;;;18.00;54.90;;;;;;4931045;29;20050;-57
2022/03/23 10:50:56;;;;;;;29.10;21.67;;;18.20;55.30;;;;;;4928800;29;20099;-57
2022/03/23 10:53:44;;;;;;;30.10;20.65;;;18.30;55.10;;;;;;4912716;29;20083;-55
2022/03/23 10:56:09;;;;;;;32.03;19.90;;;18.40;54.80;;;;;;4932603;29;20051;-56
2022/03/23 10:58:35;;;;;;;32.90;21.00;;;18.60;55.00;;;;;;4936427;29;20089;-58
2022/03/23 11:01:05;;;;;;;31.60;18.42;;;18.70;53.80;;;;;;4929562;28;20083;-57
2022/03/23 11:03:48;;;;;;;28.88;18.38;;;18.80;53.30;;;;;;4926933;28;20402;-56
2022/03/23 11:06:16;;;;;;;30.75;19.20;;;19.00;54.10;;;;;;4928478;29;20137;-56
2022/03/23 11:08:46;;;;;;;24.40;18.17;;;19.10;53.60;;;;;;4926441;29;20039;-58
2022/03/23 11:16:50;;;;;;;30.60;16.25;;;19.60;53.10;;;;;;4928197;28;20046;-55
2022/03/23 11:19:26;;;;;;;25.10;16.80;;;19.70;53.00;;;;;;4928413;28;20059;-56
2022/03/23 11:22:16;;;;;;;27.48;17.90;;;19.90;51.20;;;;;;4929056;28;20135;-57
2022/03/23 11:24:46;;;;;;;29.25;16.75;;;20.10;52.70;;;;;;4927522;29;20131;-56
2022/03/23 11:27:17;;;;;;;24.30;16.17;;;20.30;51.90;;;;;;4929215;29;20059;-57
2022/03/23 11:29:43;;;;;;;23.35;15.10;;;20.50;50.90;;;;;;4926741;29;20052;-58
2022/03/23 11:32:15;;;;;;;25.63;15.20;;;20.50;49.60;;;;;;4928160;28;20055;-57
2022/03/23 11:34:48;;;;;;;20.75;14.63;;;20.60;49.50;;;;;;4935582;29;20117;-56
2022/03/23 11:37:17;;;;;;;23.17;12.73;;;20.70;49.60;;;;;;4931169;29;20564;-56
2022/03/23 11:39:44;;;;;;;26.80;12.43;;;20.70;47.50;;;;;;4929047;29;20047;-57
2022/03/23 11:42:13;;;;;;;29.30;12.15;;;20.70;46.90;;;;;;4929045;29;20043;-56
2022/03/23 11:44:41;;;;;;;23.48;11.25;;;20.70;47.00;;;;;;4926402;28;20110;-56
2022/03/23 11:47:28;;;;;;;26.42;7.95;;;20.70;46.10;;;;;;4933438;29;20058;-58
2022/03/23 11:50:13;;;;;;;21.17;7.72;;;20.70;45.90;;;;;;4932972;28;20031;-57
2022/03/23 11:52:44;;;;;;;20.52;9.27;;;20.80;46.80;;;;;;4929692;29;20520;-54
2022/03/23 11:55:42;;;;;;;25.02;9.82;;;21.00;46.50;;;;;;4927187;28;20051;-57
2022/03/23 11:58:15;;;;;;;23.63;10.68;;;21.20;47.10;;;;;;4929312;28;20080;-57
2022/03/23 12:00:42;;;;;;;;;;;21.30;46.30;;;;;;4930399;28;20193;-57
2022/03/23 12:03:08;;;;;;;29.52;10.60;;;21.50;47.10;;;;;;4929624;29;19930;-56
2022/03/23 12:05:35;;;;;;;27.10;9.98;;;21.60;46.50;;;;;;4927027;28;20527;-56
2022/03/23 12:08:03;;;;;;;24.23;11.20;;;21.70;45.60;;;;;;4929392;28;20047;-57
2022/03/23 12:10:32;;;;;;;26.15;10.57;;;21.80;45.40;;;;;;4930244;29;20056;-57
2022/03/23 12:13:16;;;;;;;27.98;12.23;;;21.90;46.00;;;;;;4928455;28;20047;-57
2022/03/23 12:15:56;;;;;;;24.00;12.23;;;22.00;44.80;;;;;;4926397;29;20406;-57
2022/03/23 12:18:57;;;;;;;24.02;9.98;;;22.00;44.60;;;;;;4926658;29;20047;-57
2022/03/23 12:21:27;;;;;;;21.20;10.60;;;21.90;43.30;;;;;;4928935;28;20055;-56
2022/03/23 12:24:02;;;;;;;24.73;11.30;;;21.70;43.80;;;;;;4927380;28;20062;-58
2022/03/23 12:26:37;;;;;;;26.08;11.70;;;21.70;43.40;;;;;;4925277;29;20054;-57
2022/03/23 12:29:20;;;;;;;25.75;13.13;;;21.80;44.00;;;;;;4927671;29;20052;-58
2022/03/23 12:31:45;;;;;;;28.55;12.10;;;21.80;44.20;;;;;;4928355;29;20062;-58
2022/03/23 12:34:19;;;;;;;24.35;13.07;;;21.90;45.00;;;;;;4928556;29;20051;-57
2022/03/23 12:36:57;;;;;;;25.63;11.85;;;22.00;44.20;;;;;;4928111;29;20498;-57
2022/03/23 12:39:34;;;;;;;20.63;11.18;;;22.10;44.30;;;;;;4929622;28;20090;-58
2022/03/23 12:42:12;;;;;;;23.52;11.43;;;22.40;45.20;;;;;;4928042;28;20070;-56
2022/03/23 12:44:42;;;;;;;27.63;11.10;;;22.70;44.60;;;;;;4929604;28;20058;-57
2022/03/23 12:47:14;;;;;;;191.63;18.25;;;22.90;44.20;;;;;;4929191;28;20047;-56
2022/03/23 12:58:24;;;;;;;24.48;7.68;;;22.60;42.50;;;;;;4930636;29;20043;-57
2022/03/23 13:00:53;;;;;;;20.58;6.40;;;22.70;42.90;;;;;;4928589;28;20106;-58
2022/03/23 13:03:22;;;;;;;27.20;7.65;;;22.70;42.50;;;;;;4928862;28;20962;-57